Time;durP1;ratioP1;P1;durP2;ratioP2;P2;SDS_P1;SDS_P2;PMS_P1;PMS_P2;Temp;Humidity;BMP_temperature;BMP_pressure;BME280_temperature;BME280_humidity;BME280_pressure;Samples;Min_cycle;Max_cycle;Signal;HPM_P1;HPM_P2
2021/07/28 00:00:32;;;;;;;;;;;;;;;16.42;92.94;100965.88;5051757;28;20445;-50
2021/07/28 00:02:59;;;;;;;;;;;;;;;16.44;92.57;100971.06;5048845;28;20376;-49
2021/07/28 00:05:26;;;;;;;;;;;;;;;16.43;92.45;100964.06;5052316;28;20003;-44
2021/07/28 00:07:52;;;;;;;;;;;;;;;16.44;92.07;100963.94;5049364;28;19928;-47
2021/07/28 00:10:19;;;;;;;;;;;;;;;16.37;92.27;100958.34;5051555;28;19920;-57
2021/07/28 00:12:46;;;;;;;;;;;;;;;16.33;92.54;100970.22;5050802;28;20481;-50
2021/07/28 00:15:13;;;;;;;;;;;;;;;16.33;92.69;100962.25;5051401;28;19976;-57
2021/07/28 00:17:46;;;;;;;;;;;;;;;16.30;92.68;100964.31;5052411;28;19920;-56
2021/07/28 00:23:14;;;;;;;;;;;;;;;16.26;93.25;100962.91;5032589;28;19928;-58
2021/07/28 00:25:41;;;;;;;;;;;;;;;16.16;93.76;100962.88;5052273;28;19935;-57
2021/07/28 00:28:08;;;;;;;;;;;;;;;16.17;93.73;100964.53;5051947;28;19960;-46
2021/07/28 00:30:34;;;;;;;;;;;;;;;16.16;93.76;100954.91;5052145;28;19932;-57
2021/07/28 00:33:01;;;;;;;;;;;;;;;16.18;93.26;100955.59;5052690;28;19921;-57
2021/07/28 00:35:28;;;;;;;;;;;;;;;16.18;93.25;100960.91;5050715;28;19920;-49
2021/07/28 00:37:56;;;;;;;;;;;;;;;16.14;93.67;100955.06;5050371;28;19931;-47
2021/07/28 00:40:23;;;;;;;;;;;;;;;16.11;93.64;100955.28;5051730;28;19924;-48
2021/07/28 00:42:49;;;;;;;;;;;;;;;16.07;93.67;100945.09;5053037;28;19925;-57
2021/07/28 00:45:16;;;;;;;;;;;;;;;16.05;93.88;100946.06;5053106;28;19921;-46
2021/07/28 00:47:43;;;;;;;;;;;;;;;16.08;93.77;100944.13;5052767;28;19921;-46
2021/07/28 00:50:09;;;;;;;;;;;;;;;16.12;93.34;100945.53;5052749;28;19947;-48
2021/07/28 00:52:40;;;;;;;;;;;;;;;16.10;92.97;100936.88;5052997;28;20311;-57
2021/07/28 00:55:07;;;;;;;;;;;;;;;16.13;92.41;100936.59;5052562;28;19921;-47
2021/07/28 00:57:34;;;;;;;;;;;;;;;16.18;91.84;100939.69;5051823;28;19979;-57
2021/07/28 01:00:01;;;;;;;;;;;;;;;16.14;92.09;100927.66;5050047;28;19975;-48
2021/07/28 01:02:28;;;;;;;;;;;;;;;16.04;92.65;100932.94;5051994;28;19944;-47
2021/07/28 01:04:55;;;;;;;;;;;;;;;16.03;92.97;100929.47;5053084;28;19931;-49
2021/07/28 01:07:21;;;;;;;;;;;;;;;15.98;92.48;100930.81;5051714;28;19951;-57
2021/07/28 01:09:48;;;;;;;;;;;;;;;16.06;92.23;100931.00;5050620;28;19928;-57
2021/07/28 01:12:14;;;;;;;;;;;;;;;16.00;92.41;100923.56;5050116;28;19924;-50
2021/07/28 01:14:43;;;;;;;;;;;;;;;16.04;92.15;100928.47;5050093;28;19921;-47
2021/07/28 01:17:10;;;;;;;;;;;;;;;16.00;92.12;100921.75;5051254;28;19964;-50
2021/07/28 01:19:37;;;;;;;;;;;;;;;16.02;91.51;100922.47;5052630;28;19921;-50
2021/07/28 01:22:04;;;;;;;;;;;;;;;15.95;91.93;100923.13;5052726;28;19920;-58
2021/07/28 01:24:31;;;;;;;;;;;;;;;15.92;91.91;100920.75;5051477;28;20280;-58
2021/07/28 01:26:58;;;;;;;;;;;;;;;15.85;91.91;100923.09;5052651;28;20950;-58
2021/07/28 01:29:24;;;;;;;;;;;;;;;15.80;92.45;100917.34;5051380;28;20345;-49
2021/07/28 01:31:54;;;;;;;;;;;;;;;15.78;92.75;100916.59;5047599;28;19951;-47
2021/07/28 01:34:21;;;;;;;;;;;;;;;15.75;93.04;100916.84;5047493;28;19955;-48
2021/07/28 01:36:48;;;;;;;;;;;;;;;15.64;93.18;100913.31;5052578;28;19971;-58
2021/07/28 01:39:15;;;;;;;;;;;;;;;15.69;93.50;100915.56;5050462;28;19971;-58
2021/07/28 01:41:41;;;;;;;;;;;;;;;15.66;93.24;100908.72;5048657;28;20372;-45
2021/07/28 01:44:08;;;;;;;;;;;;;;;15.61;93.25;100916.25;5049922;28;19925;-48
2021/07/28 01:46:35;;;;;;;;;;;;;;;15.58;93.74;100911.19;5052243;28;19924;-48
2021/07/28 01:49:01;;;;;;;;;;;;;;;15.60;93.32;100913.69;5051712;28;20020;-58
2021/07/28 01:51:28;;;;;;;;;;;;;;;15.59;93.19;100918.16;5051080;28;20351;-58
2021/07/28 01:53:54;;;;;;;;;;;;;;;15.51;93.29;100920.63;5055001;28;20106;-58
2021/07/28 01:56:32;;;;;;;;;;;;;;;15.53;93.09;100914.25;5054861;28;19960;-58
2021/07/28 01:58:58;;;;;;;;;;;;;;;15.44;93.55;100915.00;5048147;28;20349;-58
2021/07/28 02:01:25;;;;;;;;;;;;;;;15.38;93.67;100913.72;5053888;28;19931;-57
2021/07/28 02:03:52;;;;;;;;;;;;;;;15.38;94.00;100910.25;5056223;28;19995;-58
2021/07/28 02:06:19;;;;;;;;;;;;;;;15.40;93.87;100907.47;5056159;28;19946;-58
2021/07/28 02:08:47;;;;;;;;;;;;;;;15.36;94.19;100913.00;5056418;28;20342;-58
2021/07/28 02:11:14;;;;;;;;;;;;;;;15.33;94.31;100907.97;5056010;28;20287;-58
2021/07/28 02:13:40;;;;;;;;;;;;;;;15.29;95.06;100906.53;5052749;28;20334;-58
2021/07/28 02:16:07;;;;;;;;;;;;;;;15.33;94.84;100902.66;5053814;28;19921;-58
2021/07/28 02:18:33;;;;;;;;;;;;;;;15.29;95.13;100903.91;5056119;28;19920;-58
2021/07/28 02:21:01;;;;;;;;;;;;;;;15.26;95.17;100900.69;5055931;28;19927;-58
2021/07/28 02:23:28;;;;;;;;;;;;;;;15.29;95.03;100908.38;5056069;28;19921;-58
2021/07/28 02:25:55;;;;;;;;;;;;;;;15.32;95.50;100910.75;5055659;28;20382;-46
2021/07/28 02:28:22;;;;;;;;;;;;;;;15.30;95.87;100907.41;5055733;28;19925;-58
2021/07/28 02:30:48;;;;;;;;;;;;;;;15.31;96.38;100909.06;5054498;28;19925;-49
2021/07/28 02:33:15;;;;;;;;;;;;;;;15.35;96.52;100902.53;5055673;28;20019;-58
2021/07/28 02:35:41;;;;;;;;;;;;;;;15.27;96.45;100899.69;5055509;28;19921;-58
2021/07/28 02:38:08;;;;;;;;;;;;;;;15.26;97.02;100898.88;5053740;28;19921;-58
2021/07/28 02:40:35;;;;;;;;;;;;;;;15.27;96.53;100903.22;5053043;28;19925;-49
2021/07/28 02:43:01;;;;;;;;;;;;;;;15.29;96.23;100895.13;5054455;28;19924;-47
2021/07/28 02:45:28;;;;;;;;;;;;;;;15.26;96.19;100890.09;5055418;28;20248;-48
2021/07/28 02:47:54;;;;;;;;;;;;;;;15.23;95.85;100891.19;5053965;28;19982;-48
2021/07/28 02:50:21;;;;;;;;;;;;;;;15.18;96.12;100888.91;5053953;28;19921;-47
2021/07/28 02:52:48;;;;;;;;;;;;;;;15.16;96.54;100893.50;5055085;28;20371;-44
2021/07/28 02:55:14;;;;;;;;;;;;;;;15.15;96.76;100891.81;5054765;28;19920;-45
2021/07/28 02:57:41;;;;;;;;;;;;;;;15.13;96.32;100891.09;5054951;28;20264;-49
2021/07/28 03:00:08;;;;;;;;;;;;;;;15.12;96.51;100894.72;5053746;28;19974;-50
2021/07/28 03:02:35;;;;;;;;;;;;;;;15.12;97.00;100897.38;5053703;28;19920;-44
2021/07/28 03:05:02;;;;;;;;;;;;;;;15.12;97.46;100891.22;5053688;28;19921;-48
2021/07/28 03:07:28;;;;;;;;;;;;;;;15.17;97.49;100895.19;5054949;28;19951;-47
2021/07/28 03:09:56;;;;;;;;;;;;;;;15.11;97.40;100898.34;5054757;28;19970;-58
2021/07/28 03:12:23;;;;;;;;;;;;;;;15.16;97.37;100896.16;5052967;28;19920;-58
2021/07/28 03:14:49;;;;;;;;;;;;;;;15.17;97.59;100902.28;5050947;28;20367;-58
2021/07/28 03:17:16;;;;;;;;;;;;;;;15.17;97.66;100899.63;5054656;28;19927;-51
2021/07/28 03:19:43;;;;;;;;;;;;;;;15.20;97.53;100905.53;5036892;28;20015;-49
2021/07/28 03:22:10;;;;;;;;;;;;;;;15.20;98.24;100897.56;5053321;28;19921;-58
2021/07/28 03:24:36;;;;;;;;;;;;;;;15.27;97.87;100895.25;5054574;28;19921;-46
2021/07/28 03:27:03;;;;;;;;;;;;;;;15.32;97.69;100898.34;5053044;28;19921;-45
2021/07/28 03:29:30;;;;;;;;;;;;;;;15.30;97.31;100892.34;5054414;28;19921;-46
2021/07/28 03:31:57;;;;;;;;;;;;;;;15.30;97.55;100895.00;5054708;28;19921;-48
2021/07/28 03:34:24;;;;;;;;;;;;;;;15.27;97.32;100903.22;5054487;28;19925;-49
2021/07/28 03:36:53;;;;;;;;;;;;;;;15.29;97.47;100900.41;5054578;28;20383;-47
2021/07/28 03:39:20;;;;;;;;;;;;;;;15.31;97.30;100896.69;5053996;28;20314;-47
2021/07/28 03:41:47;;;;;;;;;;;;;;;15.26;97.06;100900.69;5051909;28;20617;-49
2021/07/28 03:44:13;;;;;;;;;;;;;;;15.25;96.77;100897.19;5049328;28;20384;-48
2021/07/28 03:46:40;;;;;;;;;;;;;;;15.23;97.09;100893.84;5054176;28;19920;-47
2021/07/28 03:49:07;;;;;;;;;;;;;;;15.27;97.08;100892.59;5053733;28;19967;-58
2021/07/28 03:51:33;;;;;;;;;;;;;;;15.30;96.93;100892.34;5054184;28;19921;-58
2021/07/28 03:54:00;;;;;;;;;;;;;;;15.36;96.77;100886.50;5054236;28;20391;-58
2021/07/28 03:56:27;;;;;;;;;;;;;;;15.33;96.65;100897.38;5053747;28;19921;-58
2021/07/28 03:58:54;;;;;;;;;;;;;;;15.36;97.16;100891.81;5054191;28;19966;-58
2021/07/28 04:01:20;;;;;;;;;;;;;;;15.24;97.23;100887.53;5052818;28;19921;-58
2021/07/28 04:03:49;;;;;;;;;;;;;;;15.31;97.20;100886.06;5053628;28;20019;-45
2021/07/28 04:06:16;;;;;;;;;;;;;;;15.25;97.63;100888.41;5049584;28;19986;-49
2021/07/28 04:08:42;;;;;;;;;;;;;;;15.27;97.78;100883.78;5050261;28;19920;-48
2021/07/28 04:11:09;;;;;;;;;;;;;;;15.30;97.60;100887.03;5052321;28;20406;-50
2021/07/28 04:13:35;;;;;;;;;;;;;;;15.31;97.97;100886.06;5053066;28;20457;-44
2021/07/28 04:16:02;;;;;;;;;;;;;;;15.32;98.27;100882.44;5053614;28;19920;-46
2021/07/28 04:18:29;;;;;;;;;;;;;;;15.38;97.82;100879.28;5053642;28;19920;-47
2021/07/28 04:20:56;;;;;;;;;;;;;;;15.37;98.12;100876.75;5052024;28;19928;-58
2021/07/28 04:23:22;;;;;;;;;;;;;;;15.44;98.04;100882.38;5049851;28;19931;-58
2021/07/28 04:25:49;;;;;;;;;;;;;;;15.47;97.88;100884.75;5052268;28;19921;-58
2021/07/28 04:28:16;;;;;;;;;;;;;;;15.51;97.89;100881.72;5053332;28;19925;-58
2021/07/28 04:30:42;;;;;;;;;;;;;;;15.56;97.99;100881.34;5052207;28;20257;-58
2021/07/28 04:33:09;;;;;;;;;;;;;;;15.63;97.90;100882.47;5053282;28;20445;-47
2021/07/28 04:35:36;;;;;;;;;;;;;;;15.62;97.85;100885.25;5050153;28;19929;-46
2021/07/28 04:38:02;;;;;;;;;;;;;;;15.64;97.68;100880.69;5050664;28;19921;-58
2021/07/28 04:40:29;;;;;;;;;;;;;;;15.64;98.12;100886.81;5051611;28;20429;-58
2021/07/28 04:42:55;;;;;;;;;;;;;;;15.65;97.41;100883.19;5052986;28;19924;-58
2021/07/28 04:45:22;;;;;;;;;;;;;;;15.65;97.91;100883.19;5051471;28;19924;-58
2021/07/28 04:47:49;;;;;;;;;;;;;;;15.69;98.01;100881.97;5050133;28;20837;-59
2021/07/28 04:50:15;;;;;;;;;;;;;;;15.67;98.28;100885.72;5052712;28;20556;-59
2021/07/28 04:52:42;;;;;;;;;;;;;;;15.76;97.97;100884.06;5052846;28;20398;-59
2021/07/28 04:55:09;;;;;;;;;;;;;;;15.78;98.00;100890.09;5052889;28;20376;-58
2021/07/28 04:57:36;;;;;;;;;;;;;;;15.79;98.11;100884.66;5049736;28;20023;-59
2021/07/28 05:00:03;;;;;;;;;;;;;;;15.86;97.74;100883.16;5049496;28;19925;-50
2021/07/28 05:02:29;;;;;;;;;;;;;;;15.91;97.79;100885.44;5051113;28;20440;-48
2021/07/28 05:04:56;;;;;;;;;;;;;;;15.91;97.84;100884.59;5052981;28;19938;-49
2021/07/28 05:07:23;;;;;;;;;;;;;;;15.92;97.96;100880.97;5051454;28;19927;-50
2021/07/28 05:09:50;;;;;;;;;;;;;;;15.94;97.49;100879.88;5051687;28;20007;-59
2021/07/28 05:12:17;;;;;;;;;;;;;;;16.00;97.16;100874.00;5034970;28;19921;-58
2021/07/28 05:14:43;;;;;;;;;;;;;;;16.07;97.69;100874.31;5051720;28;20343;-47
2021/07/28 05:17:10;;;;;;;;;;;;;;;16.14;97.00;100877.25;5051218;28;19921;-49
2021/07/28 05:19:37;;;;;;;;;;;;;;;16.05;97.83;100879.75;5052465;28;19920;-50
2021/07/28 05:22:03;;;;;;;;;;;;;;;16.11;97.63;100874.88;5050485;28;19928;-59
2021/07/28 05:24:30;;;;;;;;;;;;;;;16.14;97.66;100877.25;5048335;28;19956;-51
2021/07/28 05:26:57;;;;;;;;;;;;;;;16.24;97.67;100886.09;5053612;28;19925;-51
2021/07/28 05:29:23;;;;;;;;;;;;;;;16.24;97.68;100875.47;5055394;28;19920;-46
2021/07/28 05:31:50;;;;;;;;;;;;;;;16.33;97.60;100873.81;5056375;28;20371;-51
2021/07/28 05:34:17;;;;;;;;;;;;;;;16.30;97.26;100879.41;5055314;28;20261;-52
2021/07/28 05:36:44;;;;;;;;;;;;;;;16.28;97.60;100876.88;5056272;28;20031;-49
2021/07/28 05:39:10;;;;;;;;;;;;;;;16.31;97.36;100868.66;5056255;28;19921;-46
2021/07/28 05:41:37;;;;;;;;;;;;;;;16.31;97.52;100876.59;5056457;28;19990;-49
2021/07/28 05:44:07;;;;;;;;;;;;;;;16.34;97.92;100871.03;5055382;28;19920;-47
2021/07/28 05:46:35;;;;;;;;;;;;;;;16.44;97.52;100883.47;5056477;28;19964;-59
2021/07/28 05:49:02;;;;;;;;;;;;;;;16.39;97.46;100882.06;5056357;28;20286;-59
2021/07/28 05:51:28;;;;;;;;;;;;;;;16.41;97.54;100873.13;5056194;28;20004;-59
2021/07/28 05:53:55;;;;;;;;;;;;;;;16.49;97.67;100874.13;5056354;28;20494;-59
2021/07/28 05:56:22;;;;;;;;;;;;;;;16.55;97.02;100875.38;5055857;28;19925;-59
2021/07/28 05:58:48;;;;;;;;;;;;;;;16.57;97.23;100881.41;5056069;28;19921;-59
2021/07/28 06:01:15;;;;;;;;;;;;;;;16.57;97.07;100876.09;5054555;28;19924;-59
2021/07/28 06:03:42;;;;;;;;;;;;;;;16.66;96.50;100875.25;5055725;28;19920;-59
2021/07/28 06:06:09;;;;;;;;;;;;;;;16.79;96.46;100880.28;5053041;28;19978;-59
2021/07/28 06:08:35;;;;;;;;;;;;;;;16.77;95.89;100878.75;5055256;28;19986;-59
2021/07/28 06:11:02;;;;;;;;;;;;;;;16.76;95.99;100874.44;5055712;28;19974;-49
2021/07/28 06:13:28;;;;;;;;;;;;;;;16.83;95.88;100872.88;5055745;28;19983;-59
2021/07/28 06:15:55;;;;;;;;;;;;;;;16.90;95.61;100874.03;5054734;28;19925;-58
2021/07/28 06:18:22;;;;;;;;;;;;;;;16.90;96.41;100876.69;5055734;28;19921;-58
2021/07/28 06:20:49;;;;;;;;;;;;;;;16.95;96.09;100870.97;5055884;28;20395;-58
2021/07/28 06:23:15;;;;;;;;;;;;;;;17.02;95.85;100869.41;5054601;28;19951;-58
2021/07/28 06:25:42;;;;;;;;;;;;;;;17.13;94.73;100865.78;5055465;28;19975;-49
2021/07/28 06:28:08;;;;;;;;;;;;;;;17.18;94.07;100880.31;5055784;28;19924;-50
2021/07/28 06:30:37;;;;;;;;;;;;;;;17.21;94.98;100872.03;5054489;28;19929;-58
2021/07/28 06:33:03;;;;;;;;;;;;;;;17.28;94.36;100872.31;5051826;28;19921;-49
2021/07/28 06:35:30;;;;;;;;;;;;;;;17.20;94.13;100874.84;5054057;28;19990;-49
2021/07/28 06:37:56;;;;;;;;;;;;;;;17.26;94.69;100878.75;5053738;28;19921;-49
2021/07/28 06:40:23;;;;;;;;;;;;;;;17.32;93.80;100880.84;5055149;28;19974;-48
2021/07/28 06:42:49;;;;;;;;;;;;;;;17.41;94.50;100872.00;5055342;28;19924;-49
2021/07/28 06:45:16;;;;;;;;;;;;;;;17.47;94.18;100879.41;5055283;28;19990;-47
2021/07/28 06:47:43;;;;;;;;;;;;;;;17.48;93.84;100878.41;5055026;28;19920;-47
2021/07/28 06:50:10;;;;;;;;;;;;;;;17.56;92.33;100880.34;5055166;28;19920;-48
2021/07/28 06:52:37;;;;;;;;;;;;;;;17.61;93.25;100879.91;5052798;28;19929;-58
2021/07/28 06:55:03;;;;;;;;;;;;;;;17.68;93.01;100879.22;5050987;28;19952;-45
2021/07/28 06:57:30;;;;;;;;;;;;;;;17.82;93.23;100879.69;5053433;28;19924;-45
2021/07/28 06:59:58;;;;;;;;;;;;;;;17.97;92.62;100874.75;5053750;28;19931;-48
2021/07/28 07:02:24;;;;;;;;;;;;;;;17.92;91.87;100877.88;5054786;28;19992;-49
2021/07/28 07:04:51;;;;;;;;;;;;;;;18.01;93.01;100882.31;5054870;28;19921;-50
2021/07/28 07:07:18;;;;;;;;;;;;;;;18.16;90.56;100887.13;5054840;28;19921;-58
2021/07/28 07:09:44;;;;;;;;;;;;;;;18.02;90.58;100883.13;5054843;28;19921;-52
2021/07/28 07:12:11;;;;;;;;;;;;;;;18.13;89.77;100887.44;5054613;28;20261;-57
2021/07/28 07:14:38;;;;;;;;;;;;;;;18.16;89.88;100879.13;5054568;28;19924;-59
2021/07/28 07:17:04;;;;;;;;;;;;;;;18.23;90.40;100881.06;5054566;28;20019;-59
2021/07/28 07:19:31;;;;;;;;;;;;;;;18.28;89.39;100880.59;5054441;28;19967;-46
2021/07/28 07:21:58;;;;;;;;;;;;;;;18.41;89.24;100883.75;5052899;28;19925;-50
2021/07/28 07:24:25;;;;;;;;;;;;;;;18.55;86.89;100886.88;5051596;28;20272;-49
2021/07/28 07:26:52;;;;;;;;;;;;;;;18.61;86.42;100886.28;5050631;28;19960;-46
2021/07/28 07:29:23;;;;;;;;;;;;;;;18.73;85.90;100876.22;5054158;28;19927;-47
2021/07/28 07:31:50;;;;;;;;;;;;;;;18.82;86.25;100877.97;5054031;28;20285;-47
2021/07/28 07:34:17;;;;;;;;;;;;;;;18.85;82.77;100884.84;5051867;28;19921;-51
2021/07/28 07:36:43;;;;;;;;;;;;;;;18.89;84.29;100881.72;5050054;28;19920;-49
2021/07/28 07:39:10;;;;;;;;;;;;;;;18.91;84.04;100878.94;5052267;28;19920;-49
2021/07/28 07:41:37;;;;;;;;;;;;;;;19.03;84.89;100882.19;5053924;28;19937;-48
2021/07/28 07:44:03;;;;;;;;;;;;;;;19.09;84.49;100876.25;5051670;28;19924;-50
2021/07/28 07:46:30;;;;;;;;;;;;;;;19.11;82.71;100865.44;5051586;28;19920;-48
2021/07/28 07:48:57;;;;;;;;;;;;;;;19.00;82.39;100870.00;5051794;28;19927;-48
2021/07/28 07:51:27;;;;;;;;;;;;;;;19.13;81.88;100869.59;5053348;28;19970;-49
2021/07/28 07:53:53;;;;;;;;;;;;;;;19.24;79.43;100873.84;5054071;28;20441;-47
2021/07/28 07:56:20;;;;;;;;;;;;;;;19.33;79.22;100877.41;5053659;28;19971;-44
2021/07/28 07:58:47;;;;;;;;;;;;;;;19.43;79.36;100876.31;5053724;28;20469;-59
2021/07/28 08:01:13;;;;;;;;;;;;;;;19.44;78.46;100874.47;5051318;28;19939;-59
2021/07/28 08:03:40;;;;;;;;;;;;;;;19.61;78.06;100875.41;5050237;28;19920;-59
2021/07/28 08:06:08;;;;;;;;;;;;;;;19.85;77.12;100873.88;5053202;28;19927;-60
2021/07/28 08:08:35;;;;;;;;;;;;;;;20.09;78.00;100868.63;5053682;28;19951;-47
2021/07/28 08:11:06;;;;;;;;;;;;;;;20.36;76.27;100864.03;5052185;28;19921;-46
2021/07/28 08:13:33;;;;;;;;;;;;;;;20.69;73.59;100873.97;5048708;28;19928;-49
2021/07/28 08:16:00;;;;;;;;;;;;;;;20.86;74.51;100873.00;5034752;28;19925;-51
2021/07/28 08:18:27;;;;;;;;;;;;;;;21.25;73.02;100874.94;5051552;28;19931;-51
2021/07/28 08:20:53;;;;;;;;;;;;;;;21.02;71.33;100865.97;5052316;28;19971;-46
2021/07/28 08:23:20;;;;;;;;;;;;;;;21.08;72.67;100876.00;5048890;28;19975;-52
2021/07/28 08:25:47;;;;;;;;;;;;;;;21.05;70.02;100873.63;5051333;28;19951;-51
2021/07/28 08:28:13;;;;;;;;;;;;;;;21.05;70.66;100868.28;5048921;28;19921;-45
2021/07/28 08:30:40;;;;;;;;;;;;;;;21.03;71.09;100862.28;5050639;28;19925;-47
2021/07/28 08:33:07;;;;;;;;;;;;;;;21.27;70.22;100866.78;5052260;28;20448;-51
2021/07/28 08:35:33;;;;;;;;;;;;;;;21.35;68.76;100864.09;5053088;28;20376;-59
2021/07/28 08:38:00;;;;;;;;;;;;;;;21.50;67.17;100858.03;5052746;28;19921;-51
2021/07/28 08:40:27;;;;;;;;;;;;;;;21.65;65.11;100856.34;5052786;28;19921;-51
2021/07/28 08:42:54;;;;;;;;;;;;;;;21.84;64.50;100859.59;5034963;28;19959;-56
2021/07/28 08:45:20;;;;;;;;;;;;;;;22.11;63.37;100853.81;5051504;28;20450;-60
2021/07/28 08:47:47;;;;;;;;;;;;;;;22.20;64.23;100845.72;5051886;28;20300;-60
2021/07/28 08:50:14;;;;;;;;;;;;;;;22.38;64.03;100848.97;5050227;28;20379;-61
2021/07/28 08:52:41;;;;;;;;;;;;;;;22.44;60.40;100845.59;5049860;28;20023;-59
2021/07/28 08:55:08;;;;;;;;;;;;;;;22.41;62.84;100842.44;5051199;28;20406;-59
2021/07/28 08:57:35;;;;;;;;;;;;;;;22.42;62.15;100850.28;5051360;28;19921;-59
2021/07/28 09:00:02;;;;;;;;;;;;;;;22.64;62.07;100838.94;5052255;28;19920;-60
2021/07/28 09:02:29;;;;;;;;;;;;;;;22.82;61.26;100850.16;5052426;28;19921;-59
2021/07/28 09:04:56;;;;;;;;;;;;;;;23.13;59.90;100851.94;5052599;28;20403;-59
2021/07/28 09:07:23;;;;;;;;;;;;;;;23.61;60.75;100844.38;5051527;28;20307;-59
2021/07/28 09:09:50;;;;;;;;;;;;;;;23.72;56.59;100852.97;5052458;28;19924;-59
2021/07/28 09:12:17;;;;;;;;;;;;;;;23.72;57.21;100853.78;5034822;28;19921;-59
2021/07/28 09:14:51;;;;;;;;;;;;;;;23.39;56.67;100856.84;5052877;28;20391;-60
2021/07/28 09:17:19;;;;;;;;;;;;;;;23.33;57.97;100854.91;5051852;28;19921;-59
2021/07/28 09:19:46;;;;;;;;;;;;;;;22.96;55.90;100853.91;5050002;28;19921;-59
2021/07/28 09:22:25;;;;;;;;;;;;;;;23.07;57.02;100861.50;5051263;28;19925;-60
2021/07/28 09:25:13;;;;;;;;;;;;;;;23.12;57.16;100869.00;5052516;28;20011;-60
2021/07/28 09:27:48;;;;;;;;;;;;;;;23.10;57.79;100858.44;5052183;28;19974;-59
2021/07/28 09:30:23;;;;;;;;;;;;;;;22.91;57.55;100857.13;5052526;28;20390;-60
2021/07/28 09:32:59;;;;;;;;;;;;;;;23.25;57.87;100860.38;5052329;28;19928;-60
2021/07/28 09:35:44;;;;;;;;;;;;;;;23.28;59.15;100850.09;5051228;28;19927;-59
2021/07/28 09:38:11;;;;;;;;;;;;;;;23.57;56.63;100859.19;5052280;28;19927;-59
2021/07/28 09:40:38;;;;;;;;;;;;;;;23.70;55.05;100863.06;5050025;28;19971;-59
2021/07/28 09:43:04;;;;;;;;;;;;;;;23.80;57.35;100860.91;5047453;28;19928;-59
2021/07/28 09:45:31;;;;;;;;;;;;;;;23.83;57.40;100855.16;5049850;28;19983;-59
2021/07/28 09:47:57;;;;;;;;;;;;;;;23.76;55.08;100857.78;5050970;28;19920;-59
2021/07/28 09:50:24;;;;;;;;;;;;;;;23.90;55.51;100852.59;5051945;28;20300;-59
2021/07/28 09:53:05;;;;;;;;;;;;;;;23.99;55.27;100856.84;5050682;28;19952;-59
2021/07/28 09:55:32;;;;;;;;;;;;;;;24.13;56.50;100858.69;5050875;28;19927;-59
2021/07/28 09:57:59;;;;;;;;;;;;;;;24.31;55.55;100854.75;5051951;28;19956;-59
2021/07/28 10:00:27;;;;;;;;;;;;;;;24.22;53.93;100853.19;5052039;28;19921;-59
2021/07/28 10:02:54;;;;;;;;;;;;;;;24.58;54.17;100852.31;5050751;28;19921;-59
2021/07/28 10:05:21;;;;;;;;;;;;;;;24.71;52.60;100844.41;5034219;28;20571;-58
2021/07/28 10:07:49;;;;;;;;;;;;;;;24.54;53.29;100851.03;5052384;28;20322;-60
2021/07/28 10:10:18;;;;;;;;;;;;;;;24.25;52.32;100845.56;5050732;28;20071;-60
2021/07/28 10:12:46;;;;;;;;;;;;;;;24.55;53.21;100850.81;5053818;28;19986;-57
2021/07/28 10:15:13;;;;;;;;;;;;;;;24.70;53.25;100837.34;5036077;28;20497;-60
2021/07/28 10:17:40;;;;;;;;;;;;;;;25.00;52.53;100841.72;5053149;28;19925;-58
2021/07/28 10:20:14;;;;;;;;;;;;;;;25.19;52.38;100842.91;5054448;28;19928;-58
2021/07/28 10:22:41;;;;;;;;;;;;;;;25.27;50.79;100838.19;5055453;28;19928;-58
2021/07/28 10:25:13;;;;;;;;;;;;;;;25.39;49.86;100835.00;5055441;28;19920;-58
2021/07/28 10:27:40;;;;;;;;;;;;;;;25.21;49.69;100830.91;5051759;28;19974;-58
2021/07/28 10:30:07;;;;;;;;;;;;;;;25.28;49.67;100837.16;5051062;28;19924;-59
2021/07/28 10:32:34;;;;;;;;;;;;;;;25.44;48.76;100837.91;5055290;28;19921;-59
2021/07/28 10:35:16;;;;;;;;;;;;;;;25.38;49.15;100839.53;5054070;28;19921;-59
2021/07/28 10:37:43;;;;;;;;;;;;;;;25.41;49.13;100836.44;5055200;28;19921;-59
2021/07/28 10:40:31;;;;;;;;;;;;;;;25.32;49.10;100840.31;5055206;28;19932;-59
2021/07/28 10:43:01;;;;;;;;;;;;;;;25.68;49.77;100833.88;5055129;28;20372;-59
2021/07/28 10:45:46;;;;;;;;;;;;;;;25.92;48.79;100832.53;5055382;28;19920;-59
2021/07/28 10:48:32;;;;;;;;;;;;;;;26.26;49.47;100829.94;5055038;28;19920;-59
2021/07/28 10:50:59;;;;;;;;;;;;;;;26.57;48.62;100831.25;5054874;28;20272;-60
2021/07/28 10:53:45;;;;;;;;;;;;;;;26.67;47.49;100831.69;5054118;28;20375;-59
2021/07/28 10:56:12;;;;;;;;;;;;;;;26.94;46.84;100820.91;5051862;28;20291;-59
2021/07/28 10:58:38;;;;;;;;;;;;;;;26.98;46.41;100817.59;5053730;28;19927;-59
2021/07/28 11:01:05;;;;;;;;;;;;;;;26.49;45.48;100818.78;5054583;28;19964;-60
2021/07/28 11:03:33;;;;;;;;;;;;;;;26.52;45.12;100817.56;5051132;28;19939;-59
2021/07/28 11:06:14;;;;;;;;;;;;;;;26.73;44.95;100812.00;5052137;28;20023;-59
2021/07/28 11:08:41;;;;;;;;;;;;;;;26.53;45.91;100809.25;5054369;28;20341;-59
2021/07/28 11:11:07;;;;;;;;;;;;;;;26.29;46.54;100824.19;5052748;28;19920;-59
2021/07/28 11:13:34;;;;;;;;;;;;;;;26.02;47.08;100825.94;5050183;28;20272;-59
2021/07/28 11:16:02;;;;;;;;;;;;;;;25.84;46.31;100821.94;5050806;28;20019;-59
2021/07/28 11:18:45;;;;;;;;;;;;;;;26.49;44.74;100818.78;5053284;28;19928;-59
2021/07/28 11:21:34;;;;;;;;;;;;;;;26.78;44.22;100814.91;5053931;28;19925;-59
2021/07/28 11:24:02;;;;;;;;;;;;;;;26.95;44.28;100817.16;5054424;28;19920;-59
2021/07/28 11:26:32;;;;;;;;;;;;;;;26.52;45.29;100813.00;5053230;28;20295;-59
2021/07/28 11:29:00;;;;;;;;;;;;;;;27.19;45.82;100812.13;5053865;28;19929;-59
2021/07/28 11:31:37;;;;;;;;;;;;;;;27.64;43.01;100820.38;5051769;28;20412;-59
2021/07/28 11:34:04;;;;;;;;;;;;;;;27.34;42.21;100820.84;5053374;28;20031;-59
2021/07/28 11:36:32;;;;;;;;;;;;;;;27.12;41.88;100818.41;5053917;28;19966;-59
2021/07/28 11:39:05;;;;;;;;;;;;;;;26.89;42.32;100818.84;5054124;28;19924;-59
2021/07/28 11:41:32;;;;;;;;;;;;;;;26.94;42.48;100832.53;5051793;28;19951;-59
2021/07/28 11:43:58;;;;;;;;;;;;;;;26.60;44.51;100830.81;5031879;28;20345;-60
2021/07/28 11:46:25;;;;;;;;;;;;;;;25.98;44.46;100833.59;5053046;28;19921;-60
2021/07/28 11:48:57;;;;;;;;;;;;;;;25.69;44.54;100835.56;5054110;28;19959;-59
2021/07/28 11:51:25;;;;;;;;;;;;;;;25.89;44.31;100845.56;5051318;28;19925;-59
2021/07/28 11:54:12;;;;;;;;;;;;;;;25.75;44.39;100834.75;5049973;28;20019;-60
2021/07/28 11:56:54;;;;;;;;;;;;;;;25.54;46.66;100835.69;5045403;28;19971;-49
2021/07/28 11:59:22;;;;;;;;;;;;;;;25.64;46.03;100838.81;5036512;28;19970;-50
2021/07/28 12:01:49;;;;;;;;;;;;;;;25.50;43.99;100841.66;5052914;28;19927;-59
2021/07/28 12:04:20;;;;;;;;;;;;;;;25.48;45.70;100845.41;5053828;28;19921;-59
2021/07/28 12:06:47;;;;;;;;;;;;;;;25.23;45.83;100846.84;5052450;28;19928;-59
2021/07/28 12:09:18;;;;;;;;;;;;;;;25.44;44.91;100840.59;5049650;28;19925;-60
2021/07/28 12:11:53;;;;;;;;;;;;;;;25.46;46.48;100850.13;5051879;28;20329;-60
2021/07/28 12:14:29;;;;;;;;;;;;;;;25.71;45.63;100849.63;5053304;28;19920;-52
2021/07/28 12:16:58;;;;;;;;;;;;;;;25.83;44.70;100846.38;5050943;28;20015;-51
2021/07/28 12:19:26;;;;;;;;;;;;;;;25.75;45.64;100839.31;5051401;28;19921;-49
2021/07/28 12:21:53;;;;;;;;;;;;;;;25.60;45.81;100842.13;5053280;28;20322;-51
2021/07/28 12:24:36;;;;;;;;;;;;;;;25.53;44.85;100846.66;5053223;28;19931;-50
2021/07/28 12:27:21;;;;;;;;;;;;;;;25.53;45.32;100843.97;5052311;28;19928;-58
2021/07/28 12:30:02;;;;;;;;;;;;;;;25.36;45.47;100848.81;5052070;28;19952;-45
2021/07/28 12:32:34;;;;;;;;;;;;;;;25.42;45.87;100856.13;5050768;28;19932;-48
2021/07/28 12:35:27;;;;;;;;;;;;;;;25.07;46.02;100851.53;5050145;28;19921;-59
2021/07/28 12:38:11;;;;;;;;;;;;;;;25.30;45.89;100853.97;5051272;28;19928;-59
2021/07/28 12:40:39;;;;;;;;;;;;;;;25.07;46.19;100854.22;5053092;28;19924;-59
2021/07/28 12:43:06;;;;;;;;;;;;;;;24.88;46.92;100854.88;5051938;28;19921;-50